Time,TemperatureF,DewpointF,PressureIn,WindDirection,WindDirectionDegrees,WindSpeedMPH,WindSpeedGustMPH,Humidity,HourlyPrecipIn,Conditions,Clouds,dailyrainin,SolarRadiationWatts/m^2,SoftwareType,DateUTC
2013-10-29 00:02:00,54.9,53.5,30.18,SW,227,0.0,0.0,95,0.00,RA,OVC,0.00,0.0,WeatherDisplay:10.37,2013-10-29 05:02:00,
2013-10-29 00:07:00,54.8,53.4,30.18,SW,227,0.0,0.0,95,0.00,BKN,OVC,0.00,0.0,WeatherDisplay:10.37,2013-10-29 05:07:00,
2013-10-29 00:12:00,54.7,53.6,30.18,SW,227,0.0,0.0,96,0.00,BKN,OVC,0.00,0.0,WeatherDisplay:10.37,2013-10-29 05:12:00,
2013-10-29 00:17:00,54.4,53.3,30.18,SW,227,0.0,0.0,96,0.00,BKN,OVC,0.00,0.0,WeatherDisplay:10.37,2013-10-29 05:17:00,
2013-10-29 00:22:00,54.2,52.8,30.18,SW,227,0.0,0.0,95,0.00,BKN,OVC,0.00,0.0,WeatherDisplay:10.37,2013-10-29 05:22:00,
2013-10-29 00:27:00,54.0,52.6,30.18,SW,227,0.0,0.0,95,0.00,BKN,OVC,0.00,0.0,WeatherDisplay:10.37,2013-10-29 05:27:00,
2013-10-29 00:32:00,54.1,53.0,30.18,SW,227,0.0,0.0,96,0.00,BKN,OVC,0.00,0.0,WeatherDisplay:10.37,2013-10-29 05:32:00,
2013-10-29 00:37:00,54.2,53.1,30.18,SW,227,0.0,0.0,96,0.00,BKN,OVC,0.00,0.0,WeatherDisplay:10.37,2013-10-29 05:37:00,
2013-10-29 00:42:00,54.1,53.0,30.18,SW,227,0.0,0.0,96,0.00,BKN,OVC,0.00,0.0,WeatherDisplay:10.37,2013-10-29 05:42:00,
2013-10-29 00:47:00,54.1,53.0,30.18,SW,227,0.0,0.0,96,0.00,BKN,OVC,0.00,0.0,WeatherDisplay:10.37,2013-10-29 05:47:00,
2013-10-29 00:52:00,53.9,52.8,30.18,SW,227,0.0,0.0,96,0.00,BKN,OVC,0.00,0.0,WeatherDisplay:10.37,2013-10-29 05:52:00,
2013-10-29 00:57:00,53.6,52.2,30.18,SW,227,0.0,0.0,95,0.00,BKN,OVC,0.00,0.0,WeatherDisplay:10.37,2013-10-29 05:57:00,
2013-10-29 01:02:00,53.6,52.5,30.18,SW,227,0.0,0.0,96,0.00,BKN,OVC,0.00,0.0,WeatherDisplay:10.37,2013-10-29 06:02:00,
2013-10-29 01:07:00,53.7,52.6,30.18,SW,227,0.0,0.0,96,0.00,BKN,OVC,0.00,0.0,WeatherDisplay:10.37,2013-10-29 06:07:00,
2013-10-29 01:12:00,53.6,52.5,30.18,SW,227,0.0,0.0,96,0.00,BKN,OVC,0.00,0.0,WeatherDisplay:10.37,2013-10-29 06:12:00,
2013-10-29 01:17:00,53.4,52.3,30.18,SW,227,0.0,0.0,96,0.00,BKN,OVC,0.00,0.0,WeatherDisplay:10.37,2013-10-29 06:17:00,
2013-10-29 01:22:00,53.2,51.8,30.18,SW,227,0.0,0.0,95,0.00,BKN,OVC,0.00,0.0,WeatherDisplay:10.37,2013-10-29 06:22:00,
2013-10-29 01:27:00,53.0,51.6,30.18,SW,227,0.0,0.0,95,0.00,BKN,OVC,0.00,0.0,WeatherDisplay:10.37,2013-10-29 06:27:00,
2013-10-29 01:32:00,53.0,51.9,30.19,SW,227,0.0,0.0,96,0.00,BKN,OVC,0.00,0.0,WeatherDisplay:10.37,2013-10-29 06:32:00,
2013-10-29 01:37:00,52.9,51.8,30.19,SW,227,0.0,0.0,96,0.00,BKN,OVC,0.00,0.0,WeatherDisplay:10.37,2013-10-29 06:37:00,
2013-10-29 01:42:00,52.5,51.1,30.19,SW,227,0.0,0.0,95,0.00,BKN,OVC,0.00,0.0,WeatherDisplay:10.37,2013-10-29 06:42:00,
2013-10-29 01:47:00,52.4,51.0,30.19,SW,227,0.0,0.0,95,0.00,BKN,OVC,0.00,0.0,WeatherDisplay:10.37,2013-10-29 06:47:00,
2013-10-29 01:52:00,52.5,51.4,30.19,SW,227,0.0,0.0,96,0.00,BKN,OVC,0.00,0.0,WeatherDisplay:10.37,2013-10-29 06:52:00,
2013-10-29 01:57:00,52.2,51.1,30.18,SW,227,0.0,0.0,96,0.00,BKN,OVC,0.00,0.0,WeatherDisplay:10.37,2013-10-29 06:57:00,
2013-10-29 02:02:00,52.1,51.0,30.18,SW,227,0.0,0.0,96,0.00,CLR,OVC,0.00,0.0,WeatherDisplay:10.37,2013-10-29 07:02:00,
2013-10-29 02:07:00,52.3,51.2,30.18,SW,227,0.0,0.0,96,0.00,CLR,OVC,0.00,0.0,WeatherDisplay:10.37,2013-10-29 07:07:00,
2013-10-29 02:12:00,52.3,51.2,30.18,SW,227,0.0,0.0,96,0.00,CLR,OVC,0.00,0.0,WeatherDisplay:10.37,2013-10-29 07:12:00,
2013-10-29 02:17:00,52.3,51.2,30.18,SW,227,0.0,0.0,96,0.00,CLR,OVC,0.00,0.0,WeatherDisplay:10.37,2013-10-29 07:17:00,
2013-10-29 02:22:00,52.3,51.2,30.18,SW,227,0.0,0.0,96,0.00,CLR,OVC,0.00,0.0,WeatherDisplay:10.37,2013-10-29 07:22:00,
2013-10-29 02:27:00,52.4,51.3,30.19,SW,227,0.0,0.0,96,0.00,CLR,OVC,0.00,0.0,WeatherDisplay:10.37,2013-10-29 07:27:00,
2013-10-29 02:32:00,52.5,51.4,30.19,SW,227,0.0,0.0,96,0.00,CLR,OVC,0.00,0.0,WeatherDisplay:10.37,2013-10-29 07:32:00,
2013-10-29 02:37:00,52.5,51.4,30.19,SW,227,0.0,0.0,96,0.00,CLR,OVC,0.00,0.0,WeatherDisplay:10.37,2013-10-29 07:37:00,
2013-10-29 02:42:00,52.5,51.4,30.19,SW,227,0.0,0.0,96,0.00,CLR,OVC,0.00,0.0,WeatherDisplay:10.37,2013-10-29 07:42:00,
2013-10-29 02:47:00,52.5,51.4,30.19,SW,227,0.0,0.0,96,0.00,CLR,OVC,0.00,0.0,WeatherDisplay:10.37,2013-10-29 07:47:00,
2013-10-29 02:52:00,52.7,51.6,30.19,SW,227,0.0,0.0,96,0.00,CLR,OVC,0.00,0.0,WeatherDisplay:10.37,2013-10-29 07:52:00,
2013-10-29 02:57:00,53.3,52.2,30.19,SW,227,0.0,0.0,96,0.00,CLR,OVC,0.00,0.0,WeatherDisplay:10.37,2013-10-29 07:57:00,
2013-10-29 03:02:00,53.5,52.4,30.19,SW,227,0.0,0.0,96,0.00,OVC,,0.00,0.0,WeatherDisplay:10.37,2013-10-29 08:02:00,
2013-10-29 03:07:00,53.7,52.6,30.18,SW,227,0.0,0.0,96,0.00,OVC,,0.00,0.0,WeatherDisplay:10.37,2013-10-29 08:07:00,
2013-10-29 03:12:00,53.9,52.8,30.18,SW,227,0.0,0.0,96,0.00,OVC,,0.00,0.0,WeatherDisplay:10.37,2013-10-29 08:12:00,
2013-10-29 03:17:00,53.9,52.8,30.18,SW,227,0.0,0.0,96,0.00,OVC,,0.00,0.0,WeatherDisplay:10.37,2013-10-29 08:17:00,
2013-10-29 03:22:00,53.9,52.8,30.18,SW,227,0.0,0.0,96,0.00,OVC,,0.00,0.0,WeatherDisplay:10.37,2013-10-29 08:22:00,
2013-10-29 03:27:00,54.1,53.0,30.18,SW,227,0.0,0.0,96,0.00,OVC,,0.00,0.0,WeatherDisplay:10.37,2013-10-29 08:27:00,
2013-10-29 03:32:00,54.1,53.0,30.19,SW,227,0.0,0.0,96,0.00,OVC,,0.00,0.0,WeatherDisplay:10.37,2013-10-29 08:32:00,
2013-10-29 03:37:00,54.3,53.2,30.19,SW,227,0.0,0.0,96,0.00,OVC,,0.00,0.0,WeatherDisplay:10.37,2013-10-29 08:37:00,
2013-10-29 03:42:00,54.5,53.4,30.19,SW,227,0.0,0.0,96,0.00,OVC,,0.00,0.0,WeatherDisplay:10.37,2013-10-29 08:42:00,
2013-10-29 03:47:00,54.7,53.6,30.19,SW,227,0.0,0.0,96,0.00,OVC,,0.00,0.0,WeatherDisplay:10.37,2013-10-29 08:47:00,
2013-10-29 03:52:00,54.6,53.5,30.19,SW,227,0.0,0.0,96,0.00,OVC,,0.00,0.0,WeatherDisplay:10.37,2013-10-29 08:52:00,
2013-10-29 03:57:00,54.6,53.5,30.19,SW,227,0.0,0.0,96,0.00,OVC,,0.00,0.0,WeatherDisplay:10.37,2013-10-29 08:57:00,
2013-10-29 04:02:00,54.4,53.3,30.19,SW,227,0.0,0.0,96,0.00,BKN,OVC,0.00,0.0,WeatherDisplay:10.37,2013-10-29 09:02:00,
2013-10-29 04:07:00,54.3,53.2,30.19,SW,227,0.0,0.0,96,0.00,BKN,OVC,0.00,0.0,WeatherDisplay:10.37,2013-10-29 09:07:00,
2013-10-29 04:12:00,54.1,53.0,30.19,SW,227,0.0,0.0,96,0.00,BKN,OVC,0.00,0.0,WeatherDisplay:10.37,2013-10-29 09:12:00,
2013-10-29 04:17:00,54.1,53.0,30.19,SW,227,0.0,0.0,96,0.00,BKN,OVC,0.00,0.0,WeatherDisplay:10.37,2013-10-29 09:17:00,
2013-10-29 04:22:00,54.1,53.0,30.19,SW,227,0.0,0.0,96,0.00,BKN,OVC,0.00,0.0,WeatherDisplay:10.37,2013-10-29 09:22:00,
2013-10-29 04:27:00,54.1,53.0,30.19,SW,227,0.0,0.0,96,0.00,BKN,OVC,0.00,0.0,WeatherDisplay:10.37,2013-10-29 09:27:00,
2013-10-29 04:32:00,54.2,53.1,30.19,SW,227,0.0,0.0,96,0.00,BKN,OVC,0.00,0.0,WeatherDisplay:10.37,2013-10-29 09:32:00,
2013-10-29 04:37:00,54.2,53.1,30.19,SW,227,0.0,0.0,96,0.00,BKN,OVC,0.00,0.0,WeatherDisplay:10.37,2013-10-29 09:37:00,
2013-10-29 04:42:00,54.2,53.1,30.19,SW,227,0.0,0.0,96,0.00,BKN,OVC,0.00,0.0,WeatherDisplay:10.37,2013-10-29 09:42:00,
2013-10-29 04:47:00,54.1,53.0,30.20,SW,227,0.0,0.0,96,0.00,BKN,OVC,0.00,0.0,WeatherDisplay:10.37,2013-10-29 09:47:00,
2013-10-29 04:52:00,54.1,53.0,30.20,SW,227,0.0,0.0,96,0.00,BKN,OVC,0.00,0.0,WeatherDisplay:10.37,2013-10-29 09:52:00,
2013-10-29 04:57:00,54.4,53.5,30.20,SW,227,0.0,0.0,97,0.00,BKN,OVC,0.00,0.0,WeatherDisplay:10.37,2013-10-29 09:57:00,
2013-10-29 05:02:00,54.5,53.4,30.20,SW,227,0.0,0.0,96,0.00,FEW,OVC,0.00,0.0,WeatherDisplay:10.37,2013-10-29 10:02:00,
2013-10-29 05:07:00,54.6,53.5,30.20,SW,227,0.0,0.0,96,0.00,FEW,OVC,0.00,0.0,WeatherDisplay:10.37,2013-10-29 10:07:00,
2013-10-29 05:12:00,54.6,53.5,30.20,SW,227,0.0,0.0,96,0.00,FEW,OVC,0.00,0.0,WeatherDisplay:10.37,2013-10-29 10:12:00,
2013-10-29 05:17:00,54.6,53.5,30.20,SW,227,0.0,0.0,96,0.00,FEW,OVC,0.00,0.0,WeatherDisplay:10.37,2013-10-29 10:17:00,
2013-10-29 05:22:00,54.6,53.5,30.20,SW,227,0.0,0.0,96,0.00,FEW,OVC,0.00,0.0,WeatherDisplay:10.37,2013-10-29 10:22:00,
2013-10-29 05:27:00,54.5,53.4,30.20,SW,227,0.0,0.0,96,0.00,FEW,OVC,0.00,0.0,WeatherDisplay:10.37,2013-10-29 10:27:00,
2013-10-29 05:32:00,54.4,53.3,30.20,SW,227,0.0,0.0,96,0.00,FEW,OVC,0.00,0.0,WeatherDisplay:10.37,2013-10-29 10:32:00,
2013-10-29 05:37:00,54.4,53.3,30.21,SW,227,0.0,0.0,96,0.00,FEW,OVC,0.00,0.0,WeatherDisplay:10.37,2013-10-29 10:37:00,
2013-10-29 05:42:00,54.4,53.3,30.21,SW,227,0.0,0.0,96,0.00,FEW,OVC,0.00,0.0,WeatherDisplay:10.37,2013-10-29 10:42:00,
2013-10-29 05:47:00,54.4,53.3,30.21,SW,227,0.0,0.0,96,0.00,FEW,OVC,0.00,0.0,WeatherDisplay:10.37,2013-10-29 10:47:00,
2013-10-29 05:52:00,54.5,53.4,30.21,SW,227,0.0,0.0,96,0.00,FEW,OVC,0.00,0.0,WeatherDisplay:10.37,2013-10-29 10:52:00,
2013-10-29 05:57:00,54.6,53.5,30.22,SW,227,0.0,0.0,96,0.00,FEW,OVC,0.00,0.0,WeatherDisplay:10.37,2013-10-29 10:57:00,
2013-10-29 06:02:00,54.8,53.7,30.22,SW,227,2.0,0.0,96,0.00,BKN,OVC,0.00,0.0,WeatherDisplay:10.37,2013-10-29 11:02:00,
2013-10-29 06:07:00,54.9,54.0,30.21,SW,227,1.2,0.0,97,0.00,BKN,OVC,0.00,0.0,WeatherDisplay:10.37,2013-10-29 11:07:00,
2013-10-29 06:12:00,55.0,54.1,30.21,SW,227,0.0,0.0,97,0.00,BKN,OVC,0.00,0.0,WeatherDisplay:10.37,2013-10-29 11:12:00,
2013-10-29 06:17:00,55.0,54.1,30.21,SW,227,2.3,2.3,97,0.00,BKN,OVC,0.00,0.0,WeatherDisplay:10.37,2013-10-29 11:17:00,
2013-10-29 06:22:00,54.9,54.0,30.20,SW,227,2.3,2.3,97,0.00,BKN,OVC,0.00,0.0,WeatherDisplay:10.37,2013-10-29 11:22:00,
2013-10-29 06:27:00,54.8,53.9,30.21,SW,227,0.0,0.0,97,0.00,BKN,OVC,0.00,0.0,WeatherDisplay:10.37,2013-10-29 11:27:00,
2013-10-29 06:32:00,54.7,53.8,30.21,SW,227,0.0,0.0,97,0.00,BKN,OVC,0.00,0.0,WeatherDisplay:10.37,2013-10-29 11:32:00,
2013-10-29 06:37:00,54.7,53.6,30.21,SW,227,0.0,0.0,96,0.00,BKN,OVC,0.00,0.0,WeatherDisplay:10.37,2013-10-29 11:37:00,
2013-10-29 06:42:00,54.7,53.6,30.21,SW,227,0.0,0.0,96,0.00,BKN,OVC,0.00,0.0,WeatherDisplay:10.37,2013-10-29 11:42:00,
2013-10-29 06:47:00,54.6,53.5,30.21,SW,227,0.0,0.0,96,0.00,BKN,OVC,0.00,0.0,WeatherDisplay:10.37,2013-10-29 11:47:00,
2013-10-29 06:52:00,54.6,53.5,30.20,SW,227,0.0,0.0,96,0.00,BKN,OVC,0.00,0.0,WeatherDisplay:10.37,2013-10-29 11:52:00,
2013-10-29 06:57:00,54.6,53.5,30.21,SW,227,0.0,0.0,96,0.00,BKN,OVC,0.00,0.0,WeatherDisplay:10.37,2013-10-29 11:57:00,
2013-10-29 07:02:00,54.6,53.5,30.21,SW,227,0.0,0.0,96,0.00,SCT,OVC,0.00,0.0,WeatherDisplay:10.37,2013-10-29 12:02:00,
2013-10-29 07:07:00,54.6,53.5,30.21,SW,227,0.0,0.0,96,0.00,SCT,OVC,0.00,0.0,WeatherDisplay:10.37,2013-10-29 12:07:00,
2013-10-29 07:12:00,54.7,53.6,30.21,SW,227,0.0,0.0,96,0.00,SCT,OVC,0.00,7.0,WeatherDisplay:10.37,2013-10-29 12:12:00,
2013-10-29 07:17:00,54.7,53.6,30.21,SW,227,0.0,0.0,96,0.00,SCT,OVC,0.00,12.0,WeatherDisplay:10.37,2013-10-29 12:17:00,
2013-10-29 07:22:00,54.7,53.6,30.22,SW,227,0.0,0.0,96,0.00,BKN,OVC,0.00,14.0,WeatherDisplay:10.37,2013-10-29 12:22:00,
2013-10-29 07:27:00,54.8,53.7,30.22,SW,227,0.0,0.0,96,0.00,BKN,OVC,0.00,21.0,WeatherDisplay:10.37,2013-10-29 12:27:00,
2013-10-29 07:32:00,54.9,54.0,30.22,SW,227,0.0,0.0,97,0.00,BKN,OVC,0.00,40.0,WeatherDisplay:10.37,2013-10-29 12:32:00,
2013-10-29 07:37:00,55.0,54.1,30.22,SW,227,0.0,0.0,97,0.00,BKN,OVC,0.00,54.0,WeatherDisplay:10.37,2013-10-29 12:37:00,
2013-10-29 07:42:00,55.1,54.2,30.22,SW,227,0.0,0.0,97,0.00,BKN,OVC,0.00,42.0,WeatherDisplay:10.37,2013-10-29 12:42:00,
2013-10-29 07:47:00,55.2,54.3,30.21,SW,227,0.0,0.0,97,0.00,BKN,OVC,0.00,23.0,WeatherDisplay:10.37,2013-10-29 12:47:00,
2013-10-29 07:52:00,55.3,54.4,30.22,SW,227,0.0,0.0,97,0.00,BKN,OVC,0.00,21.0,WeatherDisplay:10.37,2013-10-29 12:52:00,
2013-10-29 07:57:00,55.5,54.6,30.22,SW,227,0.0,0.0,97,0.00,BKN,OVC,0.00,40.0,WeatherDisplay:10.37,2013-10-29 12:57:00,
2013-10-29 08:02:00,55.6,54.7,30.22,SW,227,0.0,0.0,97,0.00,BKN,OVC,0.00,69.0,WeatherDisplay:10.37,2013-10-29 13:02:00,
2013-10-29 08:07:00,55.7,54.8,30.22,SW,227,0.0,0.0,97,0.00,BKN,OVC,0.00,67.0,WeatherDisplay:10.37,2013-10-29 13:07:00,
2013-10-29 08:12:00,56.1,55.2,30.23,SW,227,0.0,0.0,97,0.00,BKN,OVC,0.00,58.0,WeatherDisplay:10.37,2013-10-29 13:12:00,
2013-10-29 08:17:00,56.3,55.4,30.23,SW,227,0.0,0.0,97,0.00,BKN,OVC,0.00,67.0,WeatherDisplay:10.37,2013-10-29 13:17:00,
2013-10-29 08:22:00,56.4,55.5,30.23,SW,225,0.0,0.0,97,0.00,BKN,OVC,0.00,77.0,WeatherDisplay:10.37,2013-10-29 13:22:00,
2013-10-29 08:27:00,56.5,55.6,30.23,SW,225,0.0,0.0,97,0.00,BKN,OVC,0.00,90.0,WeatherDisplay:10.37,2013-10-29 13:27:00,
2013-10-29 08:32:00,56.6,55.7,30.23,SW,225,0.0,0.0,97,0.00,BKN,OVC,0.00,79.0,WeatherDisplay:10.37,2013-10-29 13:32:00,
2013-10-29 08:37:00,56.8,55.9,30.23,ENE,74,0.0,0.0,97,0.00,BKN,OVC,0.00,72.0,WeatherDisplay:10.37,2013-10-29 13:37:00,
2013-10-29 08:42:00,56.9,56.0,30.23,ENE,74,3.5,3.5,97,0.00,BKN,OVC,0.00,88.0,WeatherDisplay:10.37,2013-10-29 13:42:00,
2013-10-29 08:47:00,57.0,56.1,30.23,ENE,74,0.0,0.0,97,0.00,BKN,OVC,0.00,91.0,WeatherDisplay:10.37,2013-10-29 13:47:00,
2013-10-29 08:52:00,57.1,56.2,30.24,ENE,74,0.0,0.0,97,0.00,BKN,OVC,0.00,91.0,WeatherDisplay:10.37,2013-10-29 13:52:00,
2013-10-29 08:57:00,57.1,56.2,30.23,ENE,74,0.0,0.0,97,0.00,BKN,OVC,0.00,118.0,WeatherDisplay:10.37,2013-10-29 13:57:00,
2013-10-29 09:02:00,57.3,56.4,30.23,ENE,74,3.5,3.5,97,0.00,BKN,OVC,0.00,162.0,WeatherDisplay:10.37,2013-10-29 14:02:00,
2013-10-29 09:07:00,57.6,56.7,30.23,ENE,74,0.0,0.0,97,0.00,BKN,OVC,0.00,169.0,WeatherDisplay:10.37,2013-10-29 14:07:00,
2013-10-29 09:12:00,57.9,57.0,30.23,ENE,62,3.5,3.5,97,0.00,BKN,OVC,0.00,148.0,WeatherDisplay:10.37,2013-10-29 14:12:00,
2013-10-29 09:17:00,57.9,57.0,30.23,ENE,62,2.3,2.3,97,0.00,BKN,OVC,0.00,141.0,WeatherDisplay:10.37,2013-10-29 14:17:00,
2013-10-29 09:22:00,57.9,57.0,30.23,ENE,63,3.5,3.5,97,0.00,BKN,OVC,0.00,134.0,WeatherDisplay:10.37,2013-10-29 14:22:00,
2013-10-29 09:27:00,58.0,57.1,30.23,ENE,63,0.0,0.0,97,0.00,BKN,OVC,0.00,137.0,WeatherDisplay:10.37,2013-10-29 14:27:00,
2013-10-29 09:32:00,58.2,57.3,30.23,ENE,63,1.2,0.0,97,0.00,BKN,OVC,0.00,162.0,WeatherDisplay:10.37,2013-10-29 14:32:00,
2013-10-29 09:37:00,58.3,57.4,30.24,ENE,63,0.0,0.0,97,0.00,BKN,OVC,0.00,209.0,WeatherDisplay:10.37,2013-10-29 14:37:00,
2013-10-29 09:42:00,58.6,57.7,30.24,ENE,63,3.5,3.5,97,0.00,BKN,OVC,0.00,218.0,WeatherDisplay:10.37,2013-10-29 14:42:00,
2013-10-29 09:47:00,58.8,57.9,30.24,ENE,63,3.5,3.5,97,0.00,BKN,OVC,0.00,287.0,WeatherDisplay:10.37,2013-10-29 14:47:00,
2013-10-29 09:52:00,59.1,58.2,30.24,ENE,63,1.2,1.2,97,0.00,BKN,OVC,0.00,250.0,WeatherDisplay:10.37,2013-10-29 14:52:00,
2013-10-29 09:57:00,59.5,58.6,30.24,ENE,63,1.0,1.0,97,0.00,BKN,OVC,0.00,221.0,WeatherDisplay:10.37,2013-10-29 14:57:00,
2013-10-29 10:02:00,59.8,58.9,30.24,ENE,63,0.0,0.0,97,0.00,BKN,OVC,0.00,229.0,WeatherDisplay:10.37,2013-10-29 15:02:00,
2013-10-29 10:07:00,60.2,59.3,30.24,ENE,63,0.0,0.0,97,0.00,BKN,OVC,0.00,176.0,WeatherDisplay:10.37,2013-10-29 15:07:00,
2013-10-29 10:12:00,60.5,59.6,30.24,ENE,63,0.0,0.0,97,0.00,BKN,OVC,0.00,281.0,WeatherDisplay:10.37,2013-10-29 15:12:00,
2013-10-29 10:17:00,60.9,59.7,30.24,ESE,122,1.2,0.0,96,0.00,BKN,OVC,0.00,403.0,WeatherDisplay:10.37,2013-10-29 15:17:00,
2013-10-29 10:22:00,61.6,60.4,30.24,East,85,3.5,3.5,96,0.00,BKN,OVC,0.00,394.0,WeatherDisplay:10.37,2013-10-29 15:22:00,
2013-10-29 10:27:00,62.2,60.4,30.24,ENE,69,2.3,2.3,94,0.00,BKN,OVC,0.00,353.0,WeatherDisplay:10.37,2013-10-29 15:27:00,
2013-10-29 10:32:00,62.8,60.7,30.23,South,175,4.0,4.0,93,0.00,BKN,OVC,0.00,371.0,WeatherDisplay:10.37,2013-10-29 15:32:00,
2013-10-29 10:37:00,63.4,60.7,30.23,South,188,0.0,0.0,91,0.00,BKN,OVC,0.00,388.0,WeatherDisplay:10.37,2013-10-29 15:37:00,
2013-10-29 10:42:00,64.1,60.5,30.23,South,188,2.3,2.3,88,0.00,BKN,OVC,0.00,454.0,WeatherDisplay:10.37,2013-10-29 15:42:00,
2013-10-29 10:47:00,64.7,60.7,30.22,South,184,1.2,1.2,87,0.00,BKN,OVC,0.00,334.0,WeatherDisplay:10.37,2013-10-29 15:47:00,
2013-10-29 10:52:00,65.2,60.6,30.23,South,184,2.3,2.3,85,0.00,BKN,OVC,0.00,271.0,WeatherDisplay:10.37,2013-10-29 15:52:00,
2013-10-29 10:57:00,65.6,60.3,30.23,South,180,1.2,0.0,83,0.00,BKN,OVC,0.00,306.0,WeatherDisplay:10.37,2013-10-29 15:57:00,
2013-10-29 11:02:00,65.9,60.6,30.23,South,180,1.0,1.0,83,0.00,BKN,OVC,0.00,278.0,WeatherDisplay:10.37,2013-10-29 16:02:00,
2013-10-29 11:07:00,66.3,61.0,30.22,South,181,3.0,3.0,83,0.00,BKN,OVC,0.00,425.0,WeatherDisplay:10.37,2013-10-29 16:07:00,
2013-10-29 11:12:00,66.7,60.7,30.23,SSW,202,3.5,3.5,81,0.00,BKN,OVC,0.00,352.0,WeatherDisplay:10.37,2013-10-29 16:12:00,
2013-10-29 11:17:00,67.2,60.8,30.23,SSW,202,4.6,4.6,80,0.00,BKN,OVC,0.00,666.0,WeatherDisplay:10.37,2013-10-29 16:17:00,
2013-10-29 11:22:00,67.9,61.1,30.23,SSW,202,5.8,5.8,79,0.00,BKN,OVC,0.00,418.0,WeatherDisplay:10.37,2013-10-29 16:22:00,
2013-10-29 11:27:00,68.4,61.3,30.22,WSW,245,8.1,8.1,78,0.00,BKN,OVC,0.00,582.0,WeatherDisplay:10.37,2013-10-29 16:27:00,
2013-10-29 11:32:00,68.7,61.2,30.22,SW,232,4.6,4.6,77,0.00,BKN,OVC,0.00,671.0,WeatherDisplay:10.37,2013-10-29 16:32:00,
2013-10-29 11:37:00,69.1,61.2,30.22,SSW,211,6.9,6.9,76,0.00,BKN,OVC,0.00,638.0,WeatherDisplay:10.37,2013-10-29 16:37:00,
2013-10-29 11:42:00,69.6,61.3,30.22,SW,219,3.5,3.5,75,0.00,BKN,OVC,0.00,367.0,WeatherDisplay:10.37,2013-10-29 16:42:00,
2013-10-29 11:47:00,70.3,62.7,30.21,SSW,205,3.5,3.5,77,0.00,BKN,OVC,0.00,763.0,WeatherDisplay:10.37,2013-10-29 16:47:00,
2013-10-29 11:52:00,70.9,62.2,30.21,WSW,245,8.0,8.0,74,0.00,BKN,OVC,0.00,599.0,WeatherDisplay:10.37,2013-10-29 16:52:00,
2013-10-29 11:57:00,71.3,62.2,30.21,SSW,198,3.5,3.5,73,0.00,BKN,OVC,0.00,603.0,WeatherDisplay:10.37,2013-10-29 16:57:00,
2013-10-29 12:02:00,71.7,62.2,30.21,SSW,199,3.5,3.5,72,0.00,BKN,OVC,0.00,594.0,WeatherDisplay:10.37,2013-10-29 17:02:00,
2013-10-29 12:07:00,71.9,62.4,30.21,WSW,248,3.5,3.5,72,0.00,BKN,OVC,0.00,606.0,WeatherDisplay:10.37,2013-10-29 17:07:00,
2013-10-29 12:12:00,72.3,62.7,30.20,SSW,202,3.0,3.0,72,0.00,BKN,OVC,0.00,617.0,WeatherDisplay:10.37,2013-10-29 17:12:00,
2013-10-29 12:17:00,72.9,63.3,30.20,SW,215,5.8,5.8,72,0.00,BKN,OVC,0.00,647.0,WeatherDisplay:10.37,2013-10-29 17:17:00,
2013-10-29 12:22:00,73.3,62.9,30.20,West,281,3.5,3.5,70,0.00,BKN,OVC,0.00,341.0,WeatherDisplay:10.37,2013-10-29 17:22:00,
2013-10-29 12:27:00,73.5,62.7,30.19,WSW,246,5.0,5.0,69,0.00,BKN,OVC,0.00,628.0,WeatherDisplay:10.37,2013-10-29 17:27:00,
2013-10-29 12:32:00,73.9,63.1,30.19,WSW,248,4.6,4.6,69,0.00,BKN,OVC,0.00,638.0,WeatherDisplay:10.37,2013-10-29 17:32:00,
2013-10-29 12:37:00,74.0,62.7,30.18,WSW,245,5.0,5.0,68,0.00,BKN,OVC,0.00,554.0,WeatherDisplay:10.37,2013-10-29 17:37:00,
2013-10-29 12:42:00,74.0,62.7,30.18,West,277,4.6,4.6,68,0.00,BKN,OVC,0.00,582.0,WeatherDisplay:10.37,2013-10-29 17:42:00,
2013-10-29 12:47:00,74.1,63.3,30.18,SSW,209,6.9,6.9,69,0.00,BKN,OVC,0.00,647.0,WeatherDisplay:10.37,2013-10-29 17:47:00,
2013-10-29 12:52:00,74.1,62.8,30.18,SW,234,7.0,7.0,68,0.00,BKN,OVC,0.00,330.0,WeatherDisplay:10.37,2013-10-29 17:52:00,
2013-10-29 12:57:00,74.2,62.9,30.17,SSW,194,8.1,8.1,68,0.00,BKN,OVC,0.00,661.0,WeatherDisplay:10.37,2013-10-29 17:57:00,
2013-10-29 13:02:00,74.1,63.3,30.17,SW,229,4.6,4.6,69,0.00,BKN,OVC,0.00,241.0,WeatherDisplay:10.37,2013-10-29 18:02:00,
2013-10-29 13:07:00,74.2,62.5,30.17,SW,234,11.5,11.5,67,0.00,BKN,OVC,0.00,237.0,WeatherDisplay:10.37,2013-10-29 18:07:00,
2013-10-29 13:12:00,73.8,62.6,30.17,WSW,248,10.4,10.4,68,0.00,BKN,OVC,0.00,262.0,WeatherDisplay:10.37,2013-10-29 18:12:00,
2013-10-29 13:17:00,73.6,62.4,30.16,WNW,284,9.2,9.2,68,0.00,BKN,OVC,0.00,290.0,WeatherDisplay:10.37,2013-10-29 18:17:00,
2013-10-29 13:22:00,73.2,62.0,30.17,WSW,248,11.5,11.5,68,0.00,BKN,OVC,0.00,663.0,WeatherDisplay:10.37,2013-10-29 18:22:00,
2013-10-29 13:27:00,73.2,62.4,30.16,WSW,246,9.2,9.2,69,0.00,BKN,OVC,0.00,258.0,WeatherDisplay:10.37,2013-10-29 18:27:00,
2013-10-29 13:32:00,73.1,62.3,30.16,SW,217,9.2,9.2,69,0.00,BKN,OVC,0.00,178.0,WeatherDisplay:10.37,2013-10-29 18:32:00,
2013-10-29 13:37:00,73.3,63.3,30.16,SW,231,6.9,6.9,71,0.00,BKN,OVC,0.00,631.0,WeatherDisplay:10.37,2013-10-29 18:37:00,
2013-10-29 13:42:00,73.9,62.2,30.15,WSW,256,11.5,11.5,67,0.00,BKN,OVC,0.00,294.0,WeatherDisplay:10.37,2013-10-29 18:42:00,
2013-10-29 13:47:00,74.3,63.0,30.15,SW,222,11.5,11.5,68,0.00,BKN,OVC,0.00,657.0,WeatherDisplay:10.37,2013-10-29 18:47:00,
2013-10-29 13:52:00,74.8,63.1,30.15,SW,234,8.1,8.1,67,0.00,BKN,OVC,0.00,204.0,WeatherDisplay:10.37,2013-10-29 18:52:00,
2013-10-29 13:57:00,74.7,61.7,30.15,SW,224,11.5,11.5,64,0.00,BKN,OVC,0.00,605.0,WeatherDisplay:10.37,2013-10-29 18:57:00,
2013-10-29 14:02:00,74.5,61.5,30.15,WNW,284,9.2,9.2,64,0.00,BKN,OVC,0.00,153.0,WeatherDisplay:10.37,2013-10-29 19:02:00,
2013-10-29 14:07:00,74.2,62.1,30.15,SW,231,11.5,11.5,66,0.00,BKN,OVC,0.00,647.0,WeatherDisplay:10.37,2013-10-29 19:07:00,
2013-10-29 14:12:00,74.5,61.9,30.15,WSW,258,7.0,7.0,65,0.00,BKN,OVC,0.00,596.0,WeatherDisplay:10.37,2013-10-29 19:12:00,
2013-10-29 14:17:00,74.9,62.8,30.15,WSW,252,8.1,8.1,66,0.00,BKN,OVC,0.00,610.0,WeatherDisplay:10.37,2013-10-29 19:17:00,
2013-10-29 14:22:00,75.0,61.5,30.15,West,279,6.9,6.9,63,0.00,BKN,OVC,0.00,178.0,WeatherDisplay:10.37,2013-10-29 19:22:00,
2013-10-29 14:27:00,74.6,61.6,30.15,SSW,209,6.9,6.9,64,0.00,BKN,OVC,0.00,155.0,WeatherDisplay:10.37,2013-10-29 19:27:00,
2013-10-29 14:32:00,74.3,62.2,30.14,West,275,6.9,6.9,66,0.00,BKN,OVC,0.00,172.0,WeatherDisplay:10.37,2013-10-29 19:32:00,
2013-10-29 14:37:00,74.4,61.8,30.14,WSW,246,8.1,8.1,65,0.00,BKN,OVC,0.00,162.0,WeatherDisplay:10.37,2013-10-29 19:37:00,
2013-10-29 14:42:00,74.4,62.3,30.14,WNW,288,6.9,6.9,66,0.00,BKN,OVC,0.00,654.0,WeatherDisplay:10.37,2013-10-29 19:42:00,
2013-10-29 14:47:00,74.5,61.5,30.14,WSW,242,7.0,7.0,64,0.00,BKN,OVC,0.00,132.0,WeatherDisplay:10.37,2013-10-29 19:47:00,
2013-10-29 14:52:00,74.3,61.3,30.14,West,268,6.9,6.9,64,0.00,BKN,OVC,0.00,144.0,WeatherDisplay:10.37,2013-10-29 19:52:00,
2013-10-29 14:57:00,74.2,62.5,30.14,West,262,8.1,8.1,67,0.00,BKN,OVC,0.00,483.0,WeatherDisplay:10.37,2013-10-29 19:57:00,
2013-10-29 15:02:00,74.4,61.8,30.15,WNW,283,7.0,7.0,65,0.00,BKN,OVC,0.00,155.0,WeatherDisplay:10.37,2013-10-29 20:02:00,
2013-10-29 15:07:00,74.2,61.2,30.14,West,281,5.8,5.8,64,0.00,BKN,OVC,0.00,107.0,WeatherDisplay:10.37,2013-10-29 20:07:00,
2013-10-29 15:12:00,74.0,61.5,30.14,WNW,282,4.6,4.6,65,0.00,BKN,OVC,0.00,144.0,WeatherDisplay:10.37,2013-10-29 20:12:00,
2013-10-29 15:17:00,73.7,61.2,30.14,West,259,4.6,4.6,65,0.00,BKN,OVC,0.00,141.0,WeatherDisplay:10.37,2013-10-29 20:17:00,
2013-10-29 15:22:00,73.5,61.4,30.14,West,262,5.0,5.0,66,0.00,BKN,OVC,0.00,176.0,WeatherDisplay:10.37,2013-10-29 20:22:00,
2013-10-29 15:27:00,73.4,61.8,30.14,WNW,284,4.0,4.0,67,0.00,BKN,OVC,0.00,123.0,WeatherDisplay:10.37,2013-10-29 20:27:00,
2013-10-29 15:32:00,73.3,61.7,30.14,WNW,283,4.6,4.6,67,0.00,BKN,OVC,0.00,399.0,WeatherDisplay:10.37,2013-10-29 20:32:00,
2013-10-29 15:37:00,73.4,61.3,30.14,WNW,286,5.8,5.8,66,0.00,BKN,OVC,0.00,146.0,WeatherDisplay:10.37,2013-10-29 20:37:00,
2013-10-29 15:42:00,73.6,62.8,30.14,SSW,211,5.8,5.8,69,0.00,BKN,OVC,0.00,392.0,WeatherDisplay:10.37,2013-10-29 20:42:00,
2013-10-29 15:47:00,74.1,62.4,30.14,West,273,4.6,4.6,67,0.00,BKN,OVC,0.00,373.0,WeatherDisplay:10.37,2013-10-29 20:47:00,
2013-10-29 15:52:00,74.6,61.6,30.14,WNW,289,6.9,6.9,64,0.00,BKN,OVC,0.00,364.0,WeatherDisplay:10.37,2013-10-29 20:52:00,
2013-10-29 15:57:00,75.0,61.1,30.14,SW,225,11.5,11.5,62,0.00,BKN,OVC,0.00,301.0,WeatherDisplay:10.37,2013-10-29 20:57:00,
2013-10-29 16:02:00,75.1,60.7,30.14,WSW,252,6.9,6.9,61,0.00,BKN,OVC,0.00,292.0,WeatherDisplay:10.37,2013-10-29 21:02:00,
2013-10-29 16:07:00,75.2,60.8,30.14,West,271,4.6,4.6,61,0.00,BKN,OVC,0.00,123.0,WeatherDisplay:10.37,2013-10-29 21:07:00,
2013-10-29 16:12:00,75.1,61.2,30.14,SW,225,3.5,3.5,62,0.00,BKN,OVC,0.00,148.0,WeatherDisplay:10.37,2013-10-29 21:12:00,
2013-10-29 16:17:00,74.8,60.4,30.14,West,267,5.8,5.8,61,0.00,BKN,OVC,0.00,148.0,WeatherDisplay:10.37,2013-10-29 21:17:00,
2013-10-29 16:22:00,74.7,61.2,30.14,West,267,3.5,3.5,63,0.00,BKN,OVC,0.00,271.0,WeatherDisplay:10.37,2013-10-29 21:22:00,
2013-10-29 16:27:00,74.7,61.7,30.14,West,267,0.0,0.0,64,0.00,BKN,OVC,0.00,229.0,WeatherDisplay:10.37,2013-10-29 21:27:00,
2013-10-29 16:32:00,74.8,61.3,30.14,West,266,4.6,4.6,63,0.00,BKN,OVC,0.00,97.0,WeatherDisplay:10.37,2013-10-29 21:32:00,
2013-10-29 16:37:00,74.6,61.6,30.13,West,266,0.0,0.0,64,0.00,BKN,OVC,0.00,47.0,WeatherDisplay:10.37,2013-10-29 21:37:00,
2013-10-29 16:42:00,74.4,61.0,30.13,West,266,4.0,4.0,63,0.00,BKN,OVC,0.00,37.0,WeatherDisplay:10.37,2013-10-29 21:42:00,
2013-10-29 16:47:00,74.0,61.0,30.13,West,265,3.5,3.5,64,0.00,BKN,OVC,0.00,79.0,WeatherDisplay:10.37,2013-10-29 21:47:00,
2013-10-29 16:52:00,73.7,61.2,30.13,West,265,1.2,0.0,65,0.00,BKN,OVC,0.00,146.0,WeatherDisplay:10.37,2013-10-29 21:52:00,
2013-10-29 16:57:00,73.6,62.4,30.14,West,265,0.0,0.0,68,0.00,BKN,OVC,0.00,141.0,WeatherDisplay:10.37,2013-10-29 21:57:00,
2013-10-29 17:02:00,73.7,62.9,30.13,West,265,0.0,0.0,69,0.00,BKN,OVC,0.00,135.0,WeatherDisplay:10.37,2013-10-29 22:02:00,
2013-10-29 17:07:00,73.7,62.5,30.13,West,265,3.5,3.5,68,0.00,BKN,OVC,0.00,137.0,WeatherDisplay:10.37,2013-10-29 22:07:00,
2013-10-29 17:12:00,73.8,62.1,30.13,West,265,3.5,3.5,67,0.00,BKN,OVC,0.00,114.0,WeatherDisplay:10.37,2013-10-29 22:12:00,
2013-10-29 17:17:00,73.9,62.2,30.12,West,265,2.0,2.0,67,0.00,BKN,OVC,0.00,97.0,WeatherDisplay:10.37,2013-10-29 22:17:00,
2013-10-29 17:22:00,73.9,61.8,30.13,West,265,4.0,4.0,66,0.00,BKN,OVC,0.00,70.0,WeatherDisplay:10.37,2013-10-29 22:22:00,
2013-10-29 17:27:00,73.8,61.3,30.13,West,265,2.3,2.3,65,0.00,BKN,OVC,0.00,40.0,WeatherDisplay:10.37,2013-10-29 22:27:00,
2013-10-29 17:32:00,73.7,61.6,30.13,West,265,0.0,0.0,66,0.00,BKN,OVC,0.00,23.0,WeatherDisplay:10.37,2013-10-29 22:32:00,
2013-10-29 17:37:00,73.5,61.4,30.13,West,265,0.0,0.0,66,0.00,BKN,OVC,0.00,14.0,WeatherDisplay:10.37,2013-10-29 22:37:00,
2013-10-29 17:42:00,73.3,62.1,30.13,West,265,0.0,0.0,68,0.00,BKN,OVC,0.00,9.0,WeatherDisplay:10.37,2013-10-29 22:42:00,
2013-10-29 17:47:00,72.9,61.7,30.13,West,265,0.0,0.0,68,0.00,BKN,OVC,0.00,5.0,WeatherDisplay:10.37,2013-10-29 22:47:00,
2013-10-29 17:52:00,72.1,62.2,30.13,West,265,0.0,0.0,71,0.00,BKN,OVC,0.00,0.0,WeatherDisplay:10.37,2013-10-29 22:52:00,
2013-10-29 17:57:00,71.2,62.1,30.13,West,265,0.0,0.0,73,0.00,BKN,OVC,0.00,0.0,WeatherDisplay:10.37,2013-10-29 22:57:00,
2013-10-29 18:02:00,70.2,62.3,30.13,West,265,0.0,0.0,76,0.00,BKN,OVC,0.00,0.0,WeatherDisplay:10.37,2013-10-29 23:02:00,
2013-10-29 18:07:00,69.2,62.0,30.13,West,265,0.0,0.0,78,0.00,BKN,OVC,0.00,0.0,WeatherDisplay:10.37,2013-10-29 23:07:00,
2013-10-29 18:12:00,68.2,61.8,30.13,West,265,0.0,0.0,80,0.00,BKN,OVC,0.00,0.0,WeatherDisplay:10.37,2013-10-29 23:12:00,
2013-10-29 18:17:00,67.4,61.3,30.13,West,265,0.0,0.0,81,0.00,BKN,OVC,0.00,0.0,WeatherDisplay:10.37,2013-10-29 23:17:00,
2013-10-29 18:22:00,66.7,61.0,30.13,West,265,0.0,0.0,82,0.00,BKN,OVC,0.00,0.0,WeatherDisplay:10.37,2013-10-29 23:22:00,
2013-10-29 18:27:00,65.9,60.6,30.13,West,265,0.0,0.0,83,0.00,BKN,OVC,0.00,0.0,WeatherDisplay:10.37,2013-10-29 23:27:00,
2013-10-29 18:32:00,65.4,60.8,30.13,West,265,0.0,0.0,85,0.00,BKN,OVC,0.00,0.0,WeatherDisplay:10.37,2013-10-29 23:32:00,
2013-10-29 18:37:00,64.9,60.6,30.13,West,265,0.0,0.0,86,0.00,BKN,OVC,0.00,0.0,WeatherDisplay:10.37,2013-10-29 23:37:00,
2013-10-29 18:42:00,64.6,60.6,30.14,West,265,0.0,0.0,87,0.00,BKN,OVC,0.00,0.0,WeatherDisplay:10.37,2013-10-29 23:42:00,
2013-10-29 18:47:00,64.4,60.4,30.14,West,265,0.0,0.0,87,0.00,BKN,OVC,0.00,0.0,WeatherDisplay:10.37,2013-10-29 23:47:00,
2013-10-29 18:52:00,64.3,60.3,30.14,West,265,0.0,0.0,87,0.00,BKN,OVC,0.00,0.0,WeatherDisplay:10.37,2013-10-29 23:52:00,
2013-10-29 18:57:00,64.1,60.1,30.14,West,265,0.0,0.0,87,0.00,BKN,OVC,0.00,0.0,WeatherDisplay:10.37,2013-10-29 23:57:00,
2013-10-29 19:02:00,64.0,60.0,30.14,West,265,0.0,0.0,87,0.00,BKN,OVC,0.00,0.0,WeatherDisplay:10.37,2013-10-30 00:02:00,
2013-10-29 19:07:00,63.8,60.2,30.14,West,265,0.0,0.0,88,0.00,BKN,OVC,0.00,0.0,WeatherDisplay:10.37,2013-10-30 00:07:00,
2013-10-29 19:12:00,63.6,60.0,30.15,West,265,0.0,0.0,88,0.00,BKN,OVC,0.00,0.0,WeatherDisplay:10.37,2013-10-30 00:12:00,
2013-10-29 19:17:00,63.5,59.9,30.14,West,265,0.0,0.0,88,0.00,BKN,OVC,0.00,0.0,WeatherDisplay:10.37,2013-10-30 00:17:00,
2013-10-29 19:22:00,63.4,59.8,30.14,West,265,0.0,0.0,88,0.00,BKN,OVC,0.00,0.0,WeatherDisplay:10.37,2013-10-30 00:22:00,
2013-10-29 19:27:00,63.2,59.6,30.14,West,265,0.0,0.0,88,0.00,BKN,OVC,0.00,0.0,WeatherDisplay:10.37,2013-10-30 00:27:00,
2013-10-29 19:32:00,63.0,59.4,30.14,West,265,0.0,0.0,88,0.00,BKN,OVC,0.00,0.0,WeatherDisplay:10.37,2013-10-30 00:32:00,
2013-10-29 19:37:00,62.8,59.5,30.14,West,265,0.0,0.0,89,0.00,BKN,OVC,0.00,0.0,WeatherDisplay:10.37,2013-10-30 00:37:00,
2013-10-29 19:42:00,62.7,59.4,30.14,West,265,0.0,0.0,89,0.00,BKN,OVC,0.00,0.0,WeatherDisplay:10.37,2013-10-30 00:42:00,
2013-10-29 19:47:00,62.5,58.9,30.14,West,265,0.0,0.0,88,0.00,BKN,OVC,0.00,0.0,WeatherDisplay:10.37,2013-10-30 00:47:00,
2013-10-29 19:52:00,62.4,58.8,30.14,West,265,0.0,0.0,88,0.00,BKN,OVC,0.00,0.0,WeatherDisplay:10.37,2013-10-30 00:52:00,
2013-10-29 19:57:00,62.3,58.7,30.14,West,265,0.0,0.0,88,0.00,BKN,OVC,0.00,0.0,WeatherDisplay:10.37,2013-10-30 00:57:00,
2013-10-29 20:02:00,62.2,58.6,30.14,West,265,0.0,0.0,88,0.00,BKN,OVC,0.00,0.0,WeatherDisplay:10.37,2013-10-30 01:02:00,
2013-10-29 20:07:00,62.0,58.7,30.14,West,265,0.0,0.0,89,0.00,BKN,OVC,0.00,0.0,WeatherDisplay:10.37,2013-10-30 01:07:00,
2013-10-29 20:12:00,61.9,58.6,30.14,West,265,0.0,0.0,89,0.00,BKN,OVC,0.00,0.0,WeatherDisplay:10.37,2013-10-30 01:12:00,
2013-10-29 20:17:00,61.8,58.5,30.14,West,265,0.0,0.0,89,0.00,BKN,OVC,0.00,0.0,WeatherDisplay:10.37,2013-10-30 01:17:00,
2013-10-29 20:22:00,61.6,58.3,30.14,West,265,0.0,0.0,89,0.00,BKN,OVC,0.00,0.0,WeatherDisplay:10.37,2013-10-30 01:22:00,
2013-10-29 20:27:00,61.6,58.6,30.15,West,265,0.0,0.0,90,0.00,BKN,OVC,0.00,0.0,WeatherDisplay:10.37,2013-10-30 01:27:00,
2013-10-29 20:32:00,61.5,58.5,30.15,West,265,0.0,0.0,90,0.00,BKN,OVC,0.00,0.0,WeatherDisplay:10.37,2013-10-30 01:32:00,
2013-10-29 20:37:00,61.5,58.5,30.15,West,265,0.0,0.0,90,0.00,BKN,OVC,0.00,0.0,WeatherDisplay:10.37,2013-10-30 01:37:00,
2013-10-29 20:42:00,61.5,58.5,30.15,West,265,0.0,0.0,90,0.00,BKN,OVC,0.00,0.0,WeatherDisplay:10.37,2013-10-30 01:42:00,
2013-10-29 20:47:00,61.5,58.5,30.15,West,265,0.0,0.0,90,0.00,BKN,OVC,0.00,0.0,WeatherDisplay:10.37,2013-10-30 01:47:00,
2013-10-29 20:52:00,61.5,58.5,30.15,West,265,0.0,0.0,90,0.00,BKN,OVC,0.00,0.0,WeatherDisplay:10.37,2013-10-30 01:52:00,
2013-10-29 20:57:00,61.5,58.5,30.15,West,265,0.0,0.0,90,0.00,BKN,OVC,0.00,0.0,WeatherDisplay:10.37,2013-10-30 01:57:00,
2013-10-29 21:02:00,61.5,58.5,30.15,West,265,0.0,0.0,90,0.00,OVC,,0.00,0.0,WeatherDisplay:10.37,2013-10-30 02:02:00,
2013-10-29 21:07:00,61.5,58.5,30.16,West,265,0.0,0.0,90,0.00,OVC,,0.00,0.0,WeatherDisplay:10.37,2013-10-30 02:07:00,
2013-10-29 21:12:00,61.5,58.5,30.16,West,265,0.0,0.0,90,0.00,OVC,,0.00,0.0,WeatherDisplay:10.37,2013-10-30 02:12:00,
2013-10-29 21:17:00,61.6,58.6,30.16,West,265,0.0,0.0,90,0.00,OVC,,0.00,0.0,WeatherDisplay:10.37,2013-10-30 02:17:00,
2013-10-29 21:22:00,61.6,58.6,30.16,West,265,0.0,0.0,90,0.00,OVC,,0.00,0.0,WeatherDisplay:10.37,2013-10-30 02:22:00,
2013-10-29 21:27:00,61.7,58.7,30.16,West,265,0.0,0.0,90,0.00,OVC,,0.00,0.0,WeatherDisplay:10.37,2013-10-30 02:27:00,
2013-10-29 21:32:00,61.8,58.8,30.16,West,265,0.0,0.0,90,0.00,OVC,,0.00,0.0,WeatherDisplay:10.37,2013-10-30 02:32:00,
2013-10-29 21:37:00,61.9,58.9,30.16,West,265,0.0,0.0,90,0.00,OVC,,0.00,0.0,WeatherDisplay:10.37,2013-10-30 02:37:00,
2013-10-29 21:42:00,62.0,58.7,30.16,West,265,0.0,0.0,89,0.00,OVC,,0.00,0.0,WeatherDisplay:10.37,2013-10-30 02:42:00,
2013-10-29 21:47:00,62.1,58.8,30.16,West,265,0.0,0.0,89,0.00,OVC,,0.00,0.0,WeatherDisplay:10.37,2013-10-30 02:47:00,
2013-10-29 21:52:00,62.2,58.9,30.16,West,265,0.0,0.0,89,0.00,OVC,,0.00,0.0,WeatherDisplay:10.37,2013-10-30 02:52:00,
2013-10-29 21:57:00,62.4,58.8,30.16,West,265,0.0,0.0,88,0.00,OVC,,0.00,0.0,WeatherDisplay:10.37,2013-10-30 02:57:00,
2013-10-29 22:02:00,62.4,58.8,30.16,West,265,0.0,0.0,88,0.00,OVC,,0.00,0.0,WeatherDisplay:10.37,2013-10-30 03:02:00,
2013-10-29 22:07:00,62.5,58.9,30.16,West,265,0.0,0.0,88,0.00,OVC,,0.00,0.0,WeatherDisplay:10.37,2013-10-30 03:07:00,
2013-10-29 22:12:00,62.6,59.0,30.16,West,265,0.0,0.0,88,0.00,OVC,,0.00,0.0,WeatherDisplay:10.37,2013-10-30 03:12:00,
2013-10-29 22:17:00,62.7,58.8,30.16,WSW,245,5.8,5.8,87,0.00,OVC,,0.00,0.0,WeatherDisplay:10.37,2013-10-30 03:17:00,
2013-10-29 22:22:00,62.8,58.9,30.17,SSW,209,4.0,4.0,87,0.00,OVC,,0.00,0.0,WeatherDisplay:10.37,2013-10-30 03:22:00,
2013-10-29 22:27:00,63.0,58.7,30.17,SSW,211,5.8,5.8,86,0.00,OVC,,0.00,0.0,WeatherDisplay:10.37,2013-10-30 03:27:00,
2013-10-29 22:32:00,63.2,58.9,30.17,SSW,204,3.5,0.0,86,0.00,OVC,,0.00,0.0,WeatherDisplay:10.37,2013-10-30 03:32:00,
2013-10-29 22:37:00,63.4,58.8,30.17,SSW,205,3.5,3.5,85,0.00,OVC,,0.00,0.0,WeatherDisplay:10.37,2013-10-30 03:37:00,
2013-10-29 22:42:00,63.6,59.0,30.16,SSW,212,3.5,3.5,85,0.00,OVC,,0.00,0.0,WeatherDisplay:10.37,2013-10-30 03:42:00,
2013-10-29 22:47:00,63.7,58.8,30.17,SSW,212,3.5,3.5,84,0.00,OVC,,0.00,0.0,WeatherDisplay:10.37,2013-10-30 03:47:00,
2013-10-29 22:52:00,63.8,58.9,30.16,SSW,212,1.2,1.2,84,0.00,OVC,,0.00,0.0,WeatherDisplay:10.37,2013-10-30 03:52:00,
2013-10-29 22:57:00,63.8,58.9,30.16,SSW,212,0.0,0.0,84,0.00,OVC,,0.00,0.0,WeatherDisplay:10.37,2013-10-30 03:57:00,
2013-10-29 23:01:00,63.9,58.6,30.16,SSW,212,1.2,1.2,83,0.00,OVC,,0.00,0.0,WeatherDisplay:10.37,2013-10-30 04:01:00,
2013-10-29 23:02:00,63.9,58.6,30.16,SSW,212,1.2,1.2,83,0.00,OVC,,0.00,0.0,WeatherDisplay:10.37,2013-10-30 04:02:00,
2013-10-29 23:07:00,63.8,58.5,30.16,SSW,212,3.5,3.5,83,0.00,OVC,,0.00,0.0,WeatherDisplay:10.37,2013-10-30 04:07:00,
2013-10-29 23:12:00,63.8,58.5,30.16,SSW,212,2.3,2.3,83,0.00,OVC,,0.00,0.0,WeatherDisplay:10.37,2013-10-30 04:12:00,
2013-10-29 23:17:00,63.8,58.5,30.16,SSW,209,4.6,4.6,83,0.00,OVC,,0.00,0.0,WeatherDisplay:10.37,2013-10-30 04:17:00,
2013-10-29 23:22:00,63.7,58.4,30.16,SSW,209,0.0,0.0,83,0.00,OVC,,0.00,0.0,WeatherDisplay:10.37,2013-10-30 04:22:00,
2013-10-29 23:27:00,63.7,58.4,30.16,SSW,209,0.0,0.0,83,0.00,OVC,,0.00,0.0,WeatherDisplay:10.37,2013-10-30 04:27:00,
2013-10-29 23:32:00,63.6,58.3,30.16,SSW,209,0.0,0.0,83,0.00,OVC,,0.00,0.0,WeatherDisplay:10.37,2013-10-30 04:32:00,
2013-10-29 23:37:00,63.5,58.2,30.16,SSW,209,0.0,0.0,83,0.00,OVC,,0.00,0.0,WeatherDisplay:10.37,2013-10-30 04:37:00,
2013-10-29 23:42:00,63.4,58.1,30.16,SSW,209,0.0,0.0,83,0.00,OVC,,0.00,0.0,WeatherDisplay:10.37,2013-10-30 04:42:00,
2013-10-29 23:47:00,63.2,57.9,30.16,SSW,209,0.0,0.0,83,0.00,OVC,,0.00,0.0,WeatherDisplay:10.37,2013-10-30 04:47:00,
2013-10-29 23:52:00,62.9,57.6,30.16,SSW,209,0.0,0.0,83,0.00,OVC,,0.00,0.0,WeatherDisplay:10.37,2013-10-30 04:52:00,
2013-10-29 23:57:00,62.8,57.9,30.16,SSW,209,0.0,0.0,84,0.00,OVC,,0.00,0.0,WeatherDisplay:10.37,2013-10-30 04:57:00,